Time;durP1;ratioP1;P1;durP2;ratioP2;P2;SDS_P1;SDS_P2;PMS_P1;PMS_P2;Temp;Humidity;BMP_temperature;BMP_pressure;BME280_temperature;BME280_humidity;BME280_pressure;Samples;Min_cycle;Max_cycle;Signal;HPM_P1;HPM_P2
2023/07/07 11:44:01;;;;;;;2.72;1.65;;;;;;;;;;5122542;27;20494;-61
2023/07/07 11:46:37;;;;;;;4.18;1.95;;;;;;;;;;5124320;27;20047;-61
2023/07/07 11:49:11;;;;;;;3.33;1.90;;;;;;;;;;5122853;27;20047;-61
2023/07/07 11:51:44;;;;;;;3.00;2.00;;;;;;;;;;5120236;27;20039;-61
2023/07/07 11:54:30;;;;;;;4.05;1.63;;;;;;;;;;5120538;27;20050;-62
2023/07/07 11:57:11;;;;;;;2.92;2.00;;;;;;;;;;5123356;27;20051;-62
2023/07/07 11:59:49;;;;;;;2.40;1.70;;;;;;;;;;5120693;27;20534;-61
2023/07/07 12:02:18;;;;;;;2.35;1.67;;;;;;;;;;5120764;27;20486;-61
2023/07/07 12:04:46;;;;;;;2.25;2.00;;;;;;;;;;5122596;27;20055;-61
2023/07/07 12:07:17;;;;;;;2.72;1.98;;;;;;;;;;5119615;27;20043;-62
2023/07/07 12:09:47;;;;;;;2.58;1.70;;;;;;;;;;5118115;27;20055;-62
2023/07/07 12:12:19;;;;;;;2.00;1.60;;;;;;;;;;5119378;27;20055;-62
2023/07/07 12:14:52;;;;;;;4.93;1.80;;;;;;;;;;5116705;27;20391;-62
2023/07/07 12:17:23;;;;;;;2.70;1.80;;;;;;;;;;5118937;27;20501;-62
2023/07/07 12:19:52;;;;;;;2.65;1.85;;;;;;;;;;5110962;27;20071;-62
2023/07/07 12:22:21;;;;;;;2.45;1.60;;;;;;;;;;5107553;27;20044;-62
2023/07/07 12:24:53;;;;;;;3.92;1.83;;;;;;;;;;5119042;27;20043;-62
2023/07/07 12:27:22;;;;;;;2.55;1.80;;;;;;;;;;5117948;28;20048;-62
2023/07/07 12:29:52;;;;;;;2.38;1.70;;;;;;;;;;5113446;27;20051;-63
2023/07/07 12:32:20;;;;;;;2.75;1.85;;;;;;;;;;5116915;27;20822;-62
2023/07/07 12:34:49;;;;;;;3.03;1.90;;;;;;;;;;5114980;27;20040;-62
2023/07/07 12:37:17;;;;;;;3.33;2.10;;;;;;;;;;5121981;27;20443;-62
2023/07/07 12:39:51;;;;;;;3.67;1.90;;;;;;;;;;5118064;27;20051;-62
2023/07/07 12:42:19;;;;;;;2.50;1.85;;;;;;;;;;5120381;27;20052;-62
2023/07/07 12:44:46;;;;;;;2.28;1.90;;;;;;;;;;5117372;27;20082;-61
2023/07/07 12:47:32;;;;;;;4.00;2.10;;;;;;;;;;5118314;27;20039;-61
2023/07/07 12:50:00;;;;;;;2.75;2.00;;;;;;;;;;5120647;27;20056;-62
2023/07/07 12:52:30;;;;;;;3.30;1.90;;;;;;;;;;5116574;27;20391;-62
2023/07/07 12:55:05;;;;;;;4.07;1.90;;;;;;;;;;5099523;28;20444;-61
2023/07/07 12:57:32;;;;;;;3.55;2.00;;;;;;;;;;5108670;28;20486;-62
2023/07/07 13:00:14;;;;;;;3.10;1.88;;;;;;;;;;5100426;28;20059;-61
2023/07/07 13:05:35;;;;;;;2.63;2.13;;;;;;;;;;5132319;27;1272291;-61
2023/07/07 13:08:03;;;;;;;2.45;1.77;;;;;;;;;;5160318;27;20039;-61
2023/07/07 13:10:34;;;;;;;3.08;2.13;;;;;;;;;;5163831;27;20488;-61
2023/07/07 13:13:06;;;;;;;3.10;2.20;;;;;;;;;;5165133;27;20046;-61
2023/07/07 13:15:34;;;;;;;3.30;2.42;;;;;;;;;;5159882;27;20390;-62
2023/07/07 13:18:01;;;;;;;2.45;2.03;;;;;;;;;;5164761;27;20073;-62
2023/07/07 13:20:29;;;;;;;2.72;2.15;;;;;;;;;;5163942;27;20046;-62
2023/07/07 13:23:02;;;;;;;2.42;2.00;;;;;;;;;;5158374;27;20046;-62
2023/07/07 13:25:30;;;;;;;2.60;1.70;;;;;;;;;;5157221;27;20046;-61
2023/07/07 13:27:58;;;;;;;2.83;2.53;;;;;;;;;;5164845;27;20038;-61
2023/07/07 13:30:27;;;;;;;3.55;2.20;;;;;;;;;;5143752;27;20054;-62
2023/07/07 13:32:55;;;;;;;3.38;2.20;;;;;;;;;;5158455;27;20055;-61
2023/07/07 13:35:23;;;;;;;2.55;2.35;;;;;;;;;;5162706;27;20480;-61
2023/07/07 13:37:50;;;;;;;2.95;2.30;;;;;;;;;;5159340;27;20046;-61
2023/07/07 13:40:19;;;;;;;2.38;2.17;;;;;;;;;;5164741;27;20061;-61
2023/07/07 13:42:48;;;;;;;2.58;2.20;;;;;;;;;;5157371;27;20378;-61
2023/07/07 13:45:17;;;;;;;2.42;2.22;;;;;;;;;;5159726;27;20058;-61
2023/07/07 13:47:46;;;;;;;3.28;2.03;;;;;;;;;;5160605;27;20058;-62
2023/07/07 13:50:14;;;;;;;2.38;2.17;;;;;;;;;;5152949;27;20064;-61
2023/07/07 13:52:44;;;;;;;3.25;2.20;;;;;;;;;;5164044;27;20535;-62
2023/07/07 13:55:12;;;;;;;2.47;2.20;;;;;;;;;;5162003;27;20041;-61
2023/07/07 13:57:42;;;;;;;3.28;2.50;;;;;;;;;;5144184;27;20090;-61
2023/07/07 14:00:17;;;;;;;2.33;2.03;;;;;;;;;;5159117;27;20038;-61
2023/07/07 14:02:45;;;;;;;3.10;2.20;;;;;;;;;;5139562;27;20110;-61
2023/07/07 14:05:15;;;;;;;3.20;2.45;;;;;;;;;;5155546;27;20062;-62
2023/07/07 14:07:43;;;;;;;2.70;2.10;;;;;;;;;;5163385;27;20046;-61
2023/07/07 14:10:28;;;;;;;2.90;2.30;;;;;;;;;;5160314;27;20477;-61
2023/07/07 14:12:57;;;;;;;3.22;2.30;;;;;;;;;;5159773;27;20129;-61
2023/07/07 14:15:37;;;;;;;3.25;2.17;;;;;;;;;;5136467;27;20046;-61
2023/07/07 14:18:07;;;;;;;2.88;2.47;;;;;;;;;;5142051;27;20051;-61
2023/07/07 14:20:37;;;;;;;3.40;2.10;;;;;;;;;;5145080;27;20054;-62
2023/07/07 14:23:04;;;;;;;2.33;1.90;;;;;;;;;;5144958;27;20374;-62
2023/07/07 14:25:32;;;;;;;3.05;2.10;;;;;;;;;;5144604;27;20043;-61
2023/07/07 14:28:01;;;;;;;2.65;2.20;;;;;;;;;;5148565;27;20043;-61
2023/07/07 14:30:28;;;;;;;2.63;2.42;;;;;;;;;;5148519;27;20477;-61
2023/07/07 14:32:57;;;;;;;3.08;2.78;;;;;;;;;;5147707;27;20046;-62
2023/07/07 14:35:25;;;;;;;2.75;2.50;;;;;;;;;;5145397;27;20047;-62
2023/07/07 14:37:53;;;;;;;3.53;2.55;;;;;;;;;;5146624;27;20057;-62
2023/07/07 14:40:30;;;;;;;2.80;2.47;;;;;;;;;;5144176;27;20046;-61
2023/07/07 14:42:58;;;;;;;4.30;2.60;;;;;;;;;;5148388;27;20050;-62
2023/07/07 14:45:30;;;;;;;3.15;2.58;;;;;;;;;;5142473;27;20046;-61
2023/07/07 14:47:58;;;;;;;3.15;2.38;;;;;;;;;;5148245;27;20047;-64
2023/07/07 14:50:25;;;;;;;4.93;2.92;;;;;;;;;;5148583;27;20046;-64
2023/07/07 14:52:54;;;;;;;3.72;2.80;;;;;;;;;;5145856;27;20528;-64
2023/07/07 14:55:22;;;;;;;2.83;2.55;;;;;;;;;;5149268;27;20046;-65
2023/07/07 14:57:51;;;;;;;2.95;2.67;;;;;;;;;;5123402;27;20055;-64
2023/07/07 15:00:30;;;;;;;3.25;2.40;;;;;;;;;;5134850;27;20172;-64
2023/07/07 15:02:58;;;;;;;4.15;2.97;;;;;;;;;;5149308;27;20054;-65
2023/07/07 15:05:32;;;;;;;3.67;3.00;;;;;;;;;;5145514;27;20054;-64
2023/07/07 15:08:06;;;;;;;3.95;2.72;;;;;;;;;;5140716;27;20196;-65
2023/07/07 15:10:33;;;;;;;3.17;2.88;;;;;;;;;;5139282;27;20259;-64
2023/07/07 15:13:00;;;;;;;2.85;2.65;;;;;;;;;;5141656;27;20458;-64
2023/07/07 15:15:31;;;;;;;2.80;2.60;;;;;;;;;;5140054;27;20059;-64
2023/07/07 15:17:59;;;;;;;3.67;2.87;;;;;;;;;;5144814;27;20621;-64
2023/07/07 15:20:26;;;;;;;3.47;3.10;;;;;;;;;;5146408;27;20470;-64
2023/07/07 15:22:53;;;;;;;3.35;2.83;;;;;;;;;;5148762;27;20110;-62
2023/07/07 15:25:20;;;;;;;3.63;3.00;;;;;;;;;;5142469;27;20122;-62
2023/07/07 15:27:47;;;;;;;3.67;3.03;;;;;;;;;;5146163;27;20509;-62
2023/07/07 15:30:16;;;;;;;3.28;2.90;;;;;;;;;;5135080;27;20067;-62
2023/07/07 15:32:45;;;;;;;3.13;2.83;;;;;;;;;;5148762;27;20051;-62
2023/07/07 15:35:13;;;;;;;3.40;3.10;;;;;;;;;;5142511;27;20042;-63
2023/07/07 15:37:41;;;;;;;5.70;2.78;;;;;;;;;;5139752;27;20038;-62
2023/07/07 15:40:14;;;;;;;4.43;3.00;;;;;;;;;;5138707;27;20129;-64
2023/07/07 15:42:41;;;;;;;3.33;3.03;;;;;;;;;;5150044;27;20046;-64
2023/07/07 15:45:09;;;;;;;5.65;3.20;;;;;;;;;;5143140;27;20404;-64
2023/07/07 15:47:37;;;;;;;3.05;2.75;;;;;;;;;;5143401;27;20559;-64
2023/07/07 15:50:09;;;;;;;3.30;3.00;;;;;;;;;;5147097;27;20042;-64
2023/07/07 15:52:36;;;;;;;3.60;3.30;;;;;;;;;;5145721;27;20055;-64
2023/07/07 15:55:04;;;;;;;3.72;3.42;;;;;;;;;;5148733;27;20046;-62
2023/07/07 15:57:31;;;;;;;3.60;3.30;;;;;;;;;;5146464;27;20072;-66
2023/07/07 15:59:59;;;;;;;3.45;3.15;;;;;;;;;;5143615;27;20043;-66
2023/07/07 16:02:27;;;;;;;3.42;3.13;;;;;;;;;;5129107;27;20408;-65
2023/07/07 16:04:54;;;;;;;3.70;3.30;;;;;;;;;;5144299;27;20051;-66
2023/07/07 16:07:22;;;;;;;4.53;3.25;;;;;;;;;;5126261;27;20069;-65
2023/07/07 16:09:52;;;;;;;3.60;3.30;;;;;;;;;;5143387;27;20055;-66
2023/07/07 16:12:22;;;;;;;3.90;3.40;;;;;;;;;;5145393;27;20501;-66
2023/07/07 16:14:49;;;;;;;3.55;3.25;;;;;;;;;;5139382;27;20054;-65
2023/07/07 16:17:17;;;;;;;3.60;3.30;;;;;;;;;;5141610;27;20531;-66
2023/07/07 16:19:45;;;;;;;3.50;3.20;;;;;;;;;;5144651;27;20055;-65
2023/07/07 16:22:14;;;;;;;4.10;3.70;;;;;;;;;;5134940;27;20054;-66
2023/07/07 16:24:42;;;;;;;4.22;3.85;;;;;;;;;;5148726;27;20489;-65
2023/07/07 16:27:14;;;;;;;3.85;3.47;;;;;;;;;;5143376;27;20047;-65
2023/07/07 16:29:41;;;;;;;;;;;;;;;;;;5145656;27;20507;-65
2023/07/07 16:32:09;;;;;;;3.45;3.15;;;;;;;;;;5146017;27;19919;-65
2023/07/07 16:34:36;;;;;;;3.88;3.47;;;;;;;;;;5141704;27;20039;-65
2023/07/07 16:37:04;;;;;;;3.65;3.30;;;;;;;;;;5141496;27;20486;-66
2023/07/07 16:39:31;;;;;;;3.38;3.10;;;;;;;;;;5144044;27;20099;-65
2023/07/07 16:41:59;;;;;;;4.07;3.38;;;;;;;;;;5147513;27;20046;-65
2023/07/07 16:44:26;;;;;;;4.25;3.38;;;;;;;;;;5141509;27;20057;-65
2023/07/07 16:46:54;;;;;;;3.95;3.65;;;;;;;;;;5135662;27;20051;-65
2023/07/07 16:49:21;;;;;;;3.45;3.15;;;;;;;;;;5143446;27;20388;-65
2023/07/07 16:51:48;;;;;;;4.90;3.40;;;;;;;;;;5140244;27;20039;-65
2023/07/07 16:54:15;;;;;;;3.47;3.17;;;;;;;;;;5145460;27;20053;-65
2023/07/07 16:56:43;;;;;;;3.50;3.20;;;;;;;;;;5142789;27;20046;-65
2023/07/07 16:59:13;;;;;;;5.45;3.72;;;;;;;;;;5146043;27;20058;-65
2023/07/07 17:01:40;;;;;;;3.88;3.45;;;;;;;;;;5145386;27;20131;-65
2023/07/07 17:04:07;;;;;;;3.20;2.90;;;;;;;;;;5141065;27;20059;-65
2023/07/07 17:06:35;;;;;;;3.20;2.90;;;;;;;;;;5138225;27;20043;-64
2023/07/07 17:09:04;;;;;;;3.60;3.13;;;;;;;;;;5134394;27;20413;-65
2023/07/07 17:11:32;;;;;;;2.95;2.65;;;;;;;;;;5140048;27;20038;-64
2023/07/07 17:13:59;;;;;;;3.40;2.58;;;;;;;;;;5134558;27;20112;-64
2023/07/07 17:16:29;;;;;;;3.20;2.90;;;;;;;;;;5144088;27;20053;-64
2023/07/07 17:18:57;;;;;;;3.42;2.65;;;;;;;;;;5140751;27;20047;-64
2023/07/07 17:21:25;;;;;;;2.92;2.47;;;;;;;;;;5145124;27;20058;-64
2023/07/07 17:23:53;;;;;;;2.72;2.22;;;;;;;;;;5140763;27;20130;-64
2023/07/07 17:26:21;;;;;;;2.97;2.30;;;;;;;;;;5144599;27;20103;-65
2023/07/07 17:28:48;;;;;;;2.85;2.25;;;;;;;;;;5127362;27;20064;-64
2023/07/07 17:31:16;;;;;;;2.83;2.28;;;;;;;;;;5124405;27;20050;-63
2023/07/07 17:33:45;;;;;;;3.72;2.40;;;;;;;;;;5140828;27;20050;-64
2023/07/07 17:36:15;;;;;;;2.30;2.10;;;;;;;;;;5139854;27;20054;-63
2023/07/07 17:38:42;;;;;;;2.50;2.20;;;;;;;;;;5140766;27;20078;-63
2023/07/07 17:41:11;;;;;;;2.60;2.25;;;;;;;;;;5123653;27;20294;-64
2023/07/07 17:43:38;;;;;;;2.28;2.08;;;;;;;;;;5138996;27;20047;-63
2023/07/07 17:46:19;;;;;;;4.03;2.30;;;;;;;;;;5139906;27;20054;-63
2023/07/07 17:48:47;;;;;;;2.58;1.80;;;;;;;;;;5114691;27;20055;-64
2023/07/07 17:51:14;;;;;;;3.90;2.25;;;;;;;;;;5146900;27;20046;-64
2023/07/07 17:53:42;;;;;;;3.25;2.10;;;;;;;;;;5144971;27;20053;-64
2023/07/07 17:56:12;;;;;;;2.20;1.90;;;;;;;;;;5147018;27;20047;-64
2023/07/07 17:58:39;;;;;;;2.10;1.90;;;;;;;;;;5139098;27;20525;-63
2023/07/07 18:01:09;;;;;;;3.00;1.95;;;;;;;;;;5136711;27;20053;-62
2023/07/07 18:03:36;;;;;;;2.83;1.80;;;;;;;;;;5149765;27;20058;-63
2023/07/07 18:06:05;;;;;;;2.10;1.77;;;;;;;;;;5145137;27;20405;-63
2023/07/07 18:08:32;;;;;;;2.88;2.17;;;;;;;;;;5140768;27;20425;-64
2023/07/07 18:10:59;;;;;;;3.17;2.05;;;;;;;;;;5145964;27;20106;-63
2023/07/07 18:13:26;;;;;;;2.78;2.10;;;;;;;;;;5143073;27;20046;-63
2023/07/07 18:15:53;;;;;;;2.63;1.75;;;;;;;;;;5148958;27;20046;-63
2023/07/07 18:18:21;;;;;;;2.97;1.90;;;;;;;;;;5142039;27;20371;-63
2023/07/07 18:20:48;;;;;;;217.57;16.50;;;;;;;;;;5142589;27;20053;-63
2023/07/07 18:23:16;;;;;;;185.20;13.32;;;;;;;;;;5145939;27;20501;-63
2023/07/07 18:25:44;;;;;;;3.95;2.25;;;;;;;;;;5142527;27;20618;-63
2023/07/07 18:28:12;;;;;;;2.85;2.20;;;;;;;;;;5147110;27;20043;-63
2023/07/07 18:30:43;;;;;;;4.18;2.35;;;;;;;;;;5145895;27;20083;-63
2023/07/07 18:33:11;;;;;;;4.28;2.28;;;;;;;;;;5145628;27;20038;-63
2023/07/07 18:35:38;;;;;;;16.30;3.20;;;;;;;;;;5145722;27;20054;-63
2023/07/07 18:38:17;;;;;;;2.85;2.30;;;;;;;;;;5146130;27;20045;-63
2023/07/07 18:40:45;;;;;;;4.78;2.42;;;;;;;;;;5143226;27;20622;-63
2023/07/07 18:43:13;;;;;;;3.78;2.28;;;;;;;;;;5143318;27;20043;-64
2023/07/07 18:45:40;;;;;;;3.38;2.08;;;;;;;;;;5128746;27;20054;-63
2023/07/07 18:48:11;;;;;;;5.65;2.65;;;;;;;;;;5149868;27;20082;-63
2023/07/07 18:50:39;;;;;;;4.50;2.10;;;;;;;;;;5141635;27;20050;-64
2023/07/07 18:53:07;;;;;;;4.95;2.38;;;;;;;;;;5146750;27;20085;-63
2023/07/07 18:55:34;;;;;;;3.40;2.30;;;;;;;;;;5144256;27;20432;-63
2023/07/07 18:58:03;;;;;;;3.15;1.98;;;;;;;;;;5146641;27;20467;-64
2023/07/07 19:00:33;;;;;;;4.30;2.50;;;;;;;;;;5150711;27;20390;-63
2023/07/07 19:03:00;;;;;;;3.80;2.72;;;;;;;;;;5127676;27;20501;-63
2023/07/07 19:05:27;;;;;;;5.35;2.20;;;;;;;;;;5148749;27;20054;-66
2023/07/07 19:07:55;;;;;;;4.43;2.50;;;;;;;;;;5144267;27;20043;-66
2023/07/07 19:10:30;;;;;;;3.28;2.33;;;;;;;;;;5147076;27;20066;-66
2023/07/07 19:12:57;;;;;;;5.40;2.42;;;;;;;;;;5135732;27;20136;-66
2023/07/07 19:15:25;;;;;;;3.70;2.35;;;;;;;;;;5141556;27;20050;-63
2023/07/07 19:17:53;;;;;;;3.30;2.17;;;;;;;;;;5150149;27;20645;-63
2023/07/07 19:20:20;;;;;;;3.33;2.20;;;;;;;;;;5129160;27;20057;-63
2023/07/07 19:22:47;;;;;;;3.15;2.50;;;;;;;;;;5142977;27;20401;-63
2023/07/07 19:25:14;;;;;;;4.38;2.20;;;;;;;;;;5147048;27;20047;-63
2023/07/07 19:27:42;;;;;;;5.82;2.50;;;;;;;;;;5141517;27;20047;-63
2023/07/07 19:30:11;;;;;;;4.10;2.38;;;;;;;;;;5144477;27;20054;-63
2023/07/07 19:32:40;;;;;;;4.50;2.53;;;;;;;;;;5145127;27;20042;-63
2023/07/07 19:35:07;;;;;;;4.65;2.55;;;;;;;;;;5140371;27;20123;-63
2023/07/07 19:37:35;;;;;;;3.70;2.13;;;;;;;;;;5135496;27;20607;-63
2023/07/07 19:40:03;;;;;;;3.92;2.63;;;;;;;;;;5145565;27;20054;-63
2023/07/07 19:42:31;;;;;;;4.43;2.50;;;;;;;;;;5139875;27;20054;-63
2023/07/07 19:44:58;;;;;;;5.07;2.45;;;;;;;;;;5146438;27;20144;-63
2023/07/07 19:47:25;;;;;;;3.40;2.30;;;;;;;;;;5146275;27;20048;-63
2023/07/07 19:49:54;;;;;;;3.35;2.20;;;;;;;;;;5128187;27;20103;-63
2023/07/07 19:52:21;;;;;;;2.95;2.28;;;;;;;;;;5144989;27;20054;-63
2023/07/07 19:54:48;;;;;;;4.38;2.47;;;;;;;;;;5148542;27;20497;-62
2023/07/07 19:57:19;;;;;;;5.70;2.60;;;;;;;;;;5139072;27;20049;-63
2023/07/07 19:59:47;;;;;;;4.15;2.60;;;;;;;;;;5143260;27;20125;-63
2023/07/07 20:02:16;;;;;;;4.75;2.80;;;;;;;;;;5150333;27;20046;-62
2023/07/07 20:04:43;;;;;;;3.75;2.25;;;;;;;;;;5144017;27;20051;-63
2023/07/07 20:07:12;;;;;;;3.83;2.38;;;;;;;;;;5128811;27;20130;-62
2023/07/07 20:09:40;;;;;;;3.85;2.50;;;;;;;;;;5145331;27;20129;-63
2023/07/07 20:12:11;;;;;;;3.13;2.28;;;;;;;;;;5141546;27;20054;-63
2023/07/07 20:14:39;;;;;;;3.10;2.65;;;;;;;;;;5114911;27;20134;-63
2023/07/07 20:17:10;;;;;;;6.50;2.78;;;;;;;;;;5144311;27;20346;-62
2023/07/07 20:19:37;;;;;;;3.70;2.47;;;;;;;;;;5148491;27;20054;-63
2023/07/07 20:22:09;;;;;;;6.53;2.58;;;;;;;;;;5147619;27;20046;-62
2023/07/07 20:24:38;;;;;;;3.55;2.67;;;;;;;;;;5142226;27;20477;-62
2023/07/07 20:27:10;;;;;;;8.38;2.67;;;;;;;;;;5145529;27;20417;-62
2023/07/07 20:29:37;;;;;;;3.27;2.37;;;;;;;;;;5124732;27;20062;-63
2023/07/07 20:32:11;;;;;;;4.07;2.50;;;;;;;;;;5149050;27;20114;-62
2023/07/07 20:34:38;;;;;;;5.13;2.70;;;;;;;;;;5145358;27;20536;-62
2023/07/07 20:37:09;;;;;;;4.35;2.47;;;;;;;;;;5140972;27;20053;-63
2023/07/07 20:39:38;;;;;;;4.30;2.30;;;;;;;;;;5147138;27;20394;-63
2023/07/07 20:42:09;;;;;;;4.18;2.90;;;;;;;;;;5125241;27;20485;-62
2023/07/07 20:44:37;;;;;;;6.85;2.72;;;;;;;;;;5147093;27;20556;-62
2023/07/07 20:47:04;;;;;;;4.40;2.55;;;;;;;;;;5140575;27;20043;-62
2023/07/07 20:49:31;;;;;;;5.25;2.45;;;;;;;;;;5143699;27;20054;-63
2023/07/07 20:51:58;;;;;;;4.18;2.50;;;;;;;;;;5145187;27;20043;-63
2023/07/07 20:54:26;;;;;;;4.22;2.50;;;;;;;;;;5140108;27;20040;-63
2023/07/07 20:56:54;;;;;;;4.13;2.55;;;;;;;;;;5141586;27;20521;-63
2023/07/07 20:59:22;;;;;;;4.32;2.63;;;;;;;;;;5123401;27;20073;-63
2023/07/07 21:01:49;;;;;;;4.55;2.83;;;;;;;;;;5137787;27;20481;-63
2023/07/07 21:04:17;;;;;;;3.70;2.40;;;;;;;;;;5143599;27;20050;-63
2023/07/07 21:06:44;;;;;;;6.70;2.80;;;;;;;;;;5144198;27;20046;-63
2023/07/07 21:09:12;;;;;;;7.75;2.78;;;;;;;;;;5143159;27;20178;-63
2023/07/07 21:11:39;;;;;;;8.40;2.90;;;;;;;;;;5120663;27;20516;-63
2023/07/07 21:14:08;;;;;;;4.97;2.70;;;;;;;;;;5122477;27;20062;-63
2023/07/07 21:16:36;;;;;;;4.40;2.75;;;;;;;;;;5141447;27;20042;-63
2023/07/07 21:19:03;;;;;;;5.28;2.20;;;;;;;;;;5140529;27;20504;-62
2023/07/07 21:21:31;;;;;;;4.55;2.30;;;;;;;;;;5142753;27;20413;-62
2023/07/07 21:23:58;;;;;;;4.10;2.58;;;;;;;;;;5143096;27;20055;-63
2023/07/07 21:26:27;;;;;;;4.20;2.70;;;;;;;;;;5145010;27;20050;-62
2023/07/07 21:28:54;;;;;;;3.28;2.20;;;;;;;;;;5144150;27;20512;-62
2023/07/07 21:31:24;;;;;;;3.38;2.25;;;;;;;;;;5146688;27;20047;-63
2023/07/07 21:33:51;;;;;;;6.00;2.78;;;;;;;;;;5147870;27;20649;-63
2023/07/07 21:36:22;;;;;;;5.45;2.28;;;;;;;;;;5148069;27;20455;-62
2023/07/07 21:38:50;;;;;;;3.58;2.60;;;;;;;;;;5148577;27;20080;-63
2023/07/07 21:41:18;;;;;;;4.28;2.78;;;;;;;;;;5128063;27;20050;-62
2023/07/07 21:43:45;;;;;;;4.15;2.50;;;;;;;;;;5143672;27;20055;-62
2023/07/07 21:46:14;;;;;;;5.32;2.40;;;;;;;;;;5151088;27;20047;-62
2023/07/07 21:48:43;;;;;;;8.27;2.35;;;;;;;;;;5145838;27;20477;-62
2023/07/07 21:51:11;;;;;;;2.58;2.08;;;;;;;;;;5130676;27;20148;-62
2023/07/07 21:53:39;;;;;;;5.30;2.70;;;;;;;;;;5143465;27;20113;-62
2023/07/07 21:56:11;;;;;;;5.43;2.38;;;;;;;;;;5141022;27;20054;-62
2023/07/07 21:58:38;;;;;;;3.17;2.20;;;;;;;;;;5143046;27;20058;-62
2023/07/07 22:01:09;;;;;;;3.88;2.45;;;;;;;;;;5147215;27;20073;-62
2023/07/07 22:03:36;;;;;;;5.20;2.95;;;;;;;;;;5146456;27;20039;-63
2023/07/07 22:06:09;;;;;;;4.32;2.55;;;;;;;;;;5145048;27;20054;-62
2023/07/07 22:08:36;;;;;;;4.53;2.67;;;;;;;;;;5141629;27;20043;-62
2023/07/07 22:11:03;;;;;;;3.60;2.55;;;;;;;;;;5127329;27;20043;-62
2023/07/07 22:13:31;;;;;;;4.80;2.50;;;;;;;;;;5137750;27;20058;-63
2023/07/07 22:15:58;;;;;;;3.75;1.92;;;;;;;;;;5149761;27;20125;-62
2023/07/07 22:18:25;;;;;;;4.28;2.40;;;;;;;;;;5143688;27;20050;-63
2023/07/07 22:20:55;;;;;;;3.50;2.40;;;;;;;;;;5149248;27;20068;-63
2023/07/07 22:23:24;;;;;;;6.55;2.45;;;;;;;;;;5125000;27;20057;-62
2023/07/07 22:25:52;;;;;;;5.32;2.40;;;;;;;;;;5147274;27;20058;-62
2023/07/07 22:28:20;;;;;;;4.28;2.35;;;;;;;;;;5146110;27;20047;-63
2023/07/07 22:30:49;;;;;;;4.32;2.58;;;;;;;;;;5148109;27;20049;-63
2023/07/07 22:33:16;;;;;;;3.67;2.40;;;;;;;;;;5144178;27;20042;-63
2023/07/07 22:35:43;;;;;;;4.85;2.42;;;;;;;;;;5125278;27;20050;-63
2023/07/07 22:38:14;;;;;;;4.32;2.40;;;;;;;;;;5141940;27;20061;-63
2023/07/07 22:40:43;;;;;;;5.88;2.20;;;;;;;;;;5150707;27;20141;-63
2023/07/07 22:43:11;;;;;;;4.97;2.17;;;;;;;;;;5142208;27;20061;-63
2023/07/07 22:45:38;;;;;;;3.95;2.35;;;;;;;;;;5146046;27;20811;-62
2023/07/07 22:48:11;;;;;;;3.65;2.20;;;;;;;;;;5149052;27;20053;-62
2023/07/07 22:50:38;;;;;;;4.07;2.30;;;;;;;;;;5141438;27;20566;-63
2023/07/07 22:53:05;;;;;;;5.53;2.33;;;;;;;;;;5120751;27;20292;-62
2023/07/07 22:55:33;;;;;;;4.00;2.28;;;;;;;;;;5138048;27;20039;-62
2023/07/07 22:58:02;;;;;;;3.67;1.95;;;;;;;;;;5147160;27;20046;-62
2023/07/07 23:00:30;;;;;;;3.00;2.22;;;;;;;;;;5147368;27;20054;-65
2023/07/07 23:02:57;;;;;;;5.47;2.28;;;;;;;;;;5146618;27;20046;-65
2023/07/07 23:05:26;;;;;;;4.18;2.65;;;;;;;;;;5139298;27;20061;-65
2023/07/07 23:07:54;;;;;;;4.18;2.45;;;;;;;;;;5140453;27;20050;-65
2023/07/07 23:10:22;;;;;;;3.80;2.25;;;;;;;;;;5143965;27;21188;-65
2023/07/07 23:12:49;;;;;;;4.68;2.53;;;;;;;;;;5139032;27;20347;-65
2023/07/07 23:15:19;;;;;;;3.55;2.30;;;;;;;;;;5145129;27;20057;-65
2023/07/07 23:17:47;;;;;;;5.28;2.40;;;;;;;;;;5143185;27;20050;-66
2023/07/07 23:20:17;;;;;;;3.38;1.88;;;;;;;;;;5143657;27;20051;-65
2023/07/07 23:22:45;;;;;;;4.00;2.20;;;;;;;;;;5143082;27;20050;-65
2023/07/07 23:25:14;;;;;;;4.40;2.30;;;;;;;;;;5149140;27;20039;-65
2023/07/07 23:27:45;;;;;;;4.50;2.40;;;;;;;;;;5142233;27;20051;-65
2023/07/07 23:30:18;;;;;;;3.28;2.25;;;;;;;;;;5124549;27;20108;-65
2023/07/07 23:32:47;;;;;;;4.65;2.38;;;;;;;;;;5145383;27;20054;-65
2023/07/07 23:35:14;;;;;;;3.95;2.22;;;;;;;;;;5138491;27;20051;-65
2023/07/07 23:37:43;;;;;;;4.45;2.38;;;;;;;;;;5144778;27;20039;-65
2023/07/07 23:40:16;;;;;;;4.32;2.15;;;;;;;;;;5141451;27;20057;-65
2023/07/07 23:42:44;;;;;;;4.32;2.17;;;;;;;;;;5142586;27;20038;-65
2023/07/07 23:45:11;;;;;;;5.32;2.30;;;;;;;;;;5145063;27;20552;-65
2023/07/07 23:47:39;;;;;;;3.17;2.08;;;;;;;;;;5141307;27;20078;-65
2023/07/07 23:50:14;;;;;;;4.45;2.22;;;;;;;;;;5144705;27;20567;-65
2023/07/07 23:52:41;;;;;;;4.45;2.30;;;;;;;;;;5146054;27;20051;-65
2023/07/07 23:55:09;;;;;;;6.40;2.15;;;;;;;;;;5139283;27;20061;-65
2023/07/07 23:57:36;;;;;;;4.43;2.60;;;;;;;;;;5139579;27;20088;-65
